createdAt,value
2019-04-22T00:01:04.784Z,28.37
2019-04-22T00:03:42.781Z,28.73
2019-04-22T00:06:32.498Z,29.43
2019-04-22T00:09:03.317Z,28.40
2019-04-22T00:11:38.446Z,29.83
2019-04-22T00:14:08.516Z,28.37
2019-04-22T00:16:46.865Z,30.83
2019-04-22T00:19:33.538Z,27.90
2019-04-22T00:21:48.983Z,28.43
2019-04-22T00:24:17.055Z,27.60
2019-04-22T00:26:50.240Z,28.80
2019-04-22T00:32:02.055Z,28.40
2019-04-22T00:34:35.650Z,27.97
2019-04-22T00:37:11.610Z,28.83
2019-04-22T00:39:40.939Z,28.90
2019-04-22T00:42:15.334Z,29.60
2019-04-22T00:44:45.611Z,29.63
2019-04-22T00:47:23.152Z,28.73
2019-04-22T00:52:22.322Z,26.87
2019-04-22T00:55:04.207Z,27.60
2019-04-22T00:57:28.188Z,28.57
2019-04-22T00:59:58.578Z,26.40
2019-04-22T01:02:32.570Z,27.23
2019-04-22T01:05:05.506Z,25.20
2019-04-22T01:07:30.832Z,27.20
2019-04-22T01:10:11.571Z,27.90
2019-04-22T01:12:39.518Z,26.27
2019-04-22T01:15:17.577Z,26.97
2019-04-22T01:17:45.035Z,26.00
2019-04-22T01:20:37.240Z,27.10
2019-04-22T01:22:46.670Z,26.70
2019-04-22T01:25:20.574Z,26.60
2019-04-22T01:27:46.251Z,25.20
2019-04-22T01:30:15.081Z,25.43
2019-04-22T01:32:43.030Z,26.53
2019-04-22T01:35:20.747Z,26.73
2019-04-22T01:37:54.668Z,26.40
2019-04-22T01:40:39.336Z,27.77
2019-04-22T01:43:18.555Z,25.33
2019-04-22T01:45:39.401Z,25.10
2019-04-22T01:48:17.766Z,28.07
2019-04-22T01:50:43.192Z,27.73
2019-04-22T01:53:24.595Z,25.63
2019-04-22T01:55:45.471Z,26.20
2019-04-22T01:58:20.186Z,26.40
2019-04-22T02:00:59.731Z,26.23
2019-04-22T02:05:59.224Z,26.37
2019-04-22T02:08:40.532Z,26.20
2019-04-22T02:11:04.328Z,26.87
2019-04-22T02:13:36.346Z,27.30
2019-04-22T02:16:10.967Z,26.07
2019-04-22T02:21:07.294Z,27.03
2019-04-22T02:26:23.784Z,27.40
2019-04-22T02:29:02.004Z,30.47
2019-04-22T02:31:44.449Z,27.17
2019-04-22T02:34:14.047Z,27.63
2019-04-22T02:36:30.060Z,28.50
2019-04-22T02:39:14.656Z,27.07
2019-04-22T02:44:08.434Z,28.87
2019-04-22T02:46:58.115Z,26.63
2019-04-22T02:49:22.012Z,27.23
2019-04-22T02:51:32.914Z,27.23
2019-04-22T02:54:31.683Z,27.60
2019-04-22T02:59:14.103Z,26.80
2019-04-22T03:04:20.696Z,25.97
2019-04-22T03:06:43.471Z,28.07
2019-04-22T03:09:25.986Z,27.53
2019-04-22T03:12:11.420Z,26.60
2019-04-22T03:17:06.100Z,25.70
2019-04-22T03:19:48.172Z,25.70
2019-04-22T03:22:12.679Z,24.80
2019-04-22T03:27:12.407Z,25.37
2019-04-22T03:33:09.220Z,26.87
2019-04-22T03:35:31.657Z,27.50
2019-04-22T03:37:48.525Z,27.47
2019-04-22T03:40:25.060Z,27.07
2019-04-22T03:42:59.716Z,25.83
2019-04-22T03:55:32.678Z,29.07
2019-04-22T04:03:07.784Z,26.47
2019-04-22T04:05:45.484Z,27.10
2019-04-22T04:15:34.662Z,26.47
2019-04-22T04:18:13.330Z,26.43
2019-04-22T04:25:52.710Z,26.53
2019-04-22T04:28:39.963Z,26.80
2019-04-22T04:31:09.876Z,25.63
2019-04-22T04:33:35.964Z,26.43
2019-04-22T04:36:02.971Z,25.90
2019-04-22T04:38:43.421Z,29.23
2019-04-22T04:41:19.373Z,26.03
2019-04-22T04:43:50.499Z,24.97
2019-04-22T04:46:20.370Z,25.83
2019-04-22T04:48:58.505Z,24.83
2019-04-22T04:51:34.682Z,26.83
2019-04-22T04:53:41.299Z,26.10
2019-04-22T04:56:23.250Z,26.03
2019-04-22T04:59:05.011Z,25.67
2019-04-22T05:01:30.853Z,27.33
2019-04-22T05:04:11.306Z,25.77
2019-04-22T05:06:39.642Z,26.80
2019-04-22T05:09:13.514Z,24.97
2019-04-22T05:11:50.236Z,25.93
2019-04-22T05:14:06.306Z,24.47
2019-04-22T05:19:12.858Z,24.50
2019-04-22T05:21:31.031Z,24.07
2019-04-22T05:26:46.661Z,25.50
2019-04-22T05:29:15.170Z,25.00
2019-04-22T05:31:43.543Z,25.97
2019-04-22T05:34:14.629Z,25.43
2019-04-22T05:36:47.228Z,24.97
2019-04-22T05:39:17.247Z,25.90
2019-04-22T05:41:50.887Z,25.47
2019-04-22T05:44:26.254Z,26.17
2019-04-22T05:46:54.361Z,25.20
2019-04-22T05:49:26.167Z,25.33
2019-04-22T05:51:54.610Z,26.33
2019-04-22T05:54:35.197Z,26.00
2019-04-22T05:57:02.081Z,26.07
2019-04-22T05:59:42.294Z,26.50
2019-04-22T06:02:21.047Z,26.10
2019-04-22T06:04:44.991Z,25.90
2019-04-22T06:07:13.094Z,25.93
2019-04-22T06:09:47.235Z,26.43
2019-04-22T06:12:14.777Z,26.57
2019-04-22T06:14:55.744Z,26.63
2019-04-22T06:17:24.863Z,26.60
2019-04-22T06:20:00.575Z,25.83
2019-04-22T06:22:40.005Z,25.37
2019-04-22T06:25:00.891Z,28.40
2019-04-22T06:27:37.480Z,24.30
2019-04-22T06:30:04.261Z,29.20
2019-04-22T06:32:56.859Z,29.27
2019-04-22T06:35:18.450Z,25.60
2019-04-22T06:37:53.225Z,25.73
2019-04-22T06:40:13.446Z,25.20
2019-04-22T06:42:52.165Z,24.00
2019-04-22T06:45:19.289Z,24.63
2019-04-22T06:50:23.128Z,24.03
2019-04-22T06:52:56.792Z,24.90
2019-04-22T06:55:31.255Z,23.70
2019-04-22T06:57:59.858Z,23.70
2019-04-22T07:00:30.565Z,23.30
2019-04-22T07:06:12.707Z,27.13
2019-04-22T07:11:11.200Z,27.27
2019-04-22T07:13:51.737Z,23.50
2019-04-22T07:16:26.236Z,30.43
2019-04-22T07:19:07.419Z,21.67
2019-04-22T07:21:30.520Z,23.33
2019-04-22T07:24:17.875Z,21.97
2019-04-22T07:26:24.766Z,23.30
2019-04-22T07:29:01.504Z,22.73
2019-04-22T07:31:34.170Z,22.30
2019-04-22T07:34:16.351Z,22.47
2019-04-22T07:39:10.331Z,23.33
2019-04-22T07:41:59.194Z,21.83
2019-04-22T07:44:16.552Z,22.27
2019-04-22T07:46:53.377Z,22.40
2019-04-22T07:49:18.825Z,21.83
2019-04-22T07:51:49.862Z,21.47
2019-04-22T07:54:23.854Z,22.43
2019-04-22T07:56:59.961Z,24.20
2019-04-22T07:59:28.067Z,21.13
2019-04-22T08:01:56.540Z,20.03
2019-04-22T08:04:52.823Z,20.90
2019-04-22T08:07:10.722Z,23.23
2019-04-22T08:09:37.427Z,19.53
2019-04-22T08:12:02.624Z,19.10
2019-04-22T08:14:40.889Z,18.93
2019-04-22T08:17:36.425Z,19.73
2019-04-22T08:19:46.811Z,18.67
2019-04-22T08:22:11.710Z,15.20
2019-04-22T08:24:51.413Z,18.83
2019-04-22T08:27:15.455Z,15.03
2019-04-22T08:29:58.700Z,14.37
2019-04-22T08:32:25.803Z,13.67
2019-04-22T08:34:52.878Z,14.43
2019-04-22T08:40:02.885Z,14.93
2019-04-22T08:45:09.492Z,13.37
2019-04-22T08:47:38.467Z,12.77
2019-04-22T08:50:12.023Z,17.40
2019-04-22T08:52:40.631Z,13.20
2019-04-22T08:55:12.931Z,13.77
2019-04-22T08:58:07.201Z,12.00
2019-04-22T09:00:14.803Z,11.57
2019-04-22T09:02:48.200Z,13.80
2019-04-22T09:05:39.085Z,12.80
2019-04-22T09:07:52.683Z,12.27
2019-04-22T09:10:23.927Z,11.43
2019-04-22T09:15:30.465Z,15.50
2019-04-22T09:18:01.990Z,12.10
2019-04-22T09:20:32.666Z,11.83
2019-04-22T09:23:09.252Z,11.53
2019-04-22T09:28:07.297Z,13.53
2019-04-22T09:30:50.290Z,13.47
2019-04-22T09:35:51.624Z,11.33
2019-04-22T09:38:33.157Z,14.37
2019-04-22T09:40:55.263Z,13.37
2019-04-22T09:43:32.085Z,12.10
2019-04-22T09:45:57.521Z,12.73
2019-04-22T09:48:37.543Z,12.30
2019-04-22T09:51:05.632Z,12.47
2019-04-22T09:56:10.178Z,11.97
2019-04-22T09:58:44.759Z,13.10
2019-04-22T10:03:56.004Z,13.80
2019-04-22T10:06:33.768Z,12.40
2019-04-22T10:16:33.868Z,12.07
2019-04-22T10:21:43.208Z,11.23
2019-04-22T10:24:03.316Z,10.67
2019-04-22T10:26:39.137Z,12.20
2019-04-22T10:29:13.465Z,11.97
2019-04-22T10:34:02.715Z,12.10
2019-04-22T10:36:19.606Z,13.93
2019-04-22T10:38:50.654Z,11.17
2019-04-22T10:41:22.790Z,11.03
2019-04-22T10:43:54.981Z,12.60
2019-04-22T10:46:26.375Z,9.63
2019-04-22T10:48:57.858Z,9.47
2019-04-22T10:51:28.751Z,8.80
2019-04-22T10:53:59.781Z,10.83
2019-04-22T10:56:30.672Z,8.93
2019-04-22T10:59:02.630Z,8.63
2019-04-22T11:01:38.468Z,8.80
2019-04-22T11:04:11.266Z,7.50
2019-04-22T11:06:51.826Z,7.47
2019-04-22T11:09:16.317Z,6.00
2019-04-22T11:11:56.525Z,7.77
2019-04-22T11:14:21.279Z,6.27
2019-04-22T11:16:51.574Z,6.53
2019-04-22T11:19:23.588Z,4.90
2019-04-22T11:22:03.387Z,4.83
2019-04-22T11:24:26.651Z,4.50
2019-04-22T11:26:58.813Z,4.77
2019-04-22T11:29:29.895Z,5.83
2019-04-22T11:32:02.180Z,6.40
2019-04-22T11:34:33.390Z,6.13
2019-04-22T11:37:05.257Z,5.47
2019-04-22T11:39:36.683Z,5.47
2019-04-22T11:42:07.863Z,4.67
2019-04-22T11:44:39.132Z,4.60
2019-04-22T11:47:09.725Z,5.30
2019-04-22T11:49:41.638Z,3.97
2019-04-22T11:52:15.254Z,4.67
2019-04-22T11:54:46.706Z,4.63
2019-04-22T11:57:17.161Z,4.20
2019-04-22T11:59:47.395Z,5.20
2019-04-22T12:02:21.966Z,5.80
2019-04-22T12:04:53.651Z,3.90
2019-04-22T12:07:24.283Z,4.17
2019-04-22T12:09:55.616Z,5.50
2019-04-22T12:12:27.830Z,4.40
2019-04-22T12:14:58.844Z,4.20
2019-04-22T12:17:29.949Z,4.93
2019-04-22T12:20:02.082Z,4.77
2019-04-22T12:22:32.166Z,4.30
2019-04-22T12:25:04.124Z,4.07
2019-04-22T12:27:35.228Z,8.33
2019-04-22T12:30:06.915Z,5.60
2019-04-22T12:32:39.024Z,3.80
2019-04-22T12:35:11.549Z,4.63
2019-04-22T12:37:49.710Z,4.23
2019-04-22T12:40:29.115Z,6.63
2019-04-22T12:42:49.050Z,4.40
2019-04-22T12:45:20.490Z,4.23
2019-04-22T12:47:50.960Z,4.03
2019-04-22T12:50:29.242Z,5.87
2019-04-22T12:53:00.791Z,19.53
2019-04-22T12:55:27.956Z,4.67
2019-04-22T12:58:00.816Z,4.47
2019-04-22T13:00:30.387Z,5.67
2019-04-22T13:03:01.136Z,5.50
2019-04-22T13:05:33.283Z,14.80
2019-04-22T13:08:05.443Z,4.97
2019-04-22T13:10:45.621Z,4.40
2019-04-22T13:13:09.208Z,4.20
2019-04-22T13:15:39.501Z,4.40
2019-04-22T13:18:20.516Z,4.87
2019-04-22T13:20:44.298Z,4.70
2019-04-22T13:23:15.715Z,4.00
2019-04-22T13:25:47.140Z,4.77
2019-04-22T13:28:19.071Z,8.53
2019-04-22T13:30:50.545Z,5.60
2019-04-22T13:33:21.045Z,5.70
2019-04-22T13:35:52.180Z,4.73
2019-04-22T13:38:22.809Z,5.03
2019-04-22T13:41:07.183Z,6.97
2019-04-22T13:43:25.265Z,10.27
2019-04-22T13:45:56.196Z,25.93
2019-04-22T13:48:51.719Z,17.33
2019-04-22T13:51:38.523Z,10.03
2019-04-22T13:54:29.544Z,5.73
2019-04-22T13:56:25.714Z,5.47
2019-04-22T13:58:48.501Z,6.07
2019-04-22T14:01:12.790Z,5.23
2019-04-22T14:04:02.567Z,5.73
2019-04-22T14:06:34.519Z,5.30
2019-04-22T14:09:09.530Z,4.70
2019-04-22T14:11:49.887Z,5.63
2019-04-22T14:14:12.738Z,4.30
2019-04-22T14:16:43.036Z,4.47
2019-04-22T14:19:14.163Z,4.30
2019-04-22T14:21:47.366Z,5.97
2019-04-22T14:24:17.817Z,7.93
2019-04-22T14:26:59.983Z,5.43
2019-04-22T14:29:21.746Z,5.37
2019-04-22T14:32:04.234Z,7.60
2019-04-22T14:34:26.586Z,4.60
2019-04-22T14:36:57.361Z,4.63
2019-04-22T14:39:28.089Z,6.47
2019-04-22T14:44:37.840Z,3.97
2019-04-22T14:47:29.281Z,4.13
2019-04-22T14:50:01.047Z,4.33
2019-04-22T14:52:31.430Z,4.47
2019-04-22T14:54:51.643Z,6.23
2019-04-22T14:57:12.974Z,4.97
2019-04-22T14:59:44.028Z,5.50
2019-04-22T15:02:16.021Z,4.40
2019-04-22T15:04:48.000Z,4.07
2019-04-22T15:07:19.190Z,6.03
2019-04-22T15:09:50.336Z,8.83
2019-04-22T15:12:31.272Z,5.63
2019-04-22T15:14:53.450Z,5.37
2019-04-22T15:17:44.984Z,4.30
2019-04-22T15:20:27.654Z,4.50
2019-04-22T15:22:59.091Z,5.00
2019-04-22T15:25:30.621Z,4.00
2019-04-22T15:28:01.616Z,4.17
2019-04-22T15:30:33.100Z,5.87
2019-04-22T15:33:03.716Z,5.57
2019-04-22T15:35:35.321Z,4.10
2019-04-22T15:38:06.909Z,5.37
2019-04-22T15:40:38.553Z,4.57
2019-04-22T15:43:10.878Z,5.63
2019-04-22T15:45:41.318Z,4.10
2019-04-22T15:48:11.780Z,4.37
2019-04-22T15:50:42.488Z,6.50
2019-04-22T15:53:13.845Z,4.30
2019-04-22T15:55:44.885Z,4.40
2019-04-22T15:58:15.480Z,4.43
2019-04-22T16:00:57.663Z,4.67
2019-04-22T16:03:18.621Z,4.37
2019-04-22T16:05:50.096Z,4.60
2019-04-22T16:08:21.399Z,5.30
2019-04-22T16:10:51.848Z,4.43
2019-04-22T16:13:26.450Z,4.50
2019-04-22T16:15:54.629Z,4.30
2019-04-22T16:18:26.503Z,5.30
2019-04-22T16:20:56.797Z,4.60
2019-04-22T16:23:38.555Z,5.37
2019-04-22T16:26:28.422Z,5.80
2019-04-22T16:28:59.612Z,4.00
2019-04-22T16:31:31.384Z,6.00
2019-04-22T16:34:02.649Z,6.00
2019-04-22T16:36:34.567Z,6.30
2019-04-22T16:39:06.927Z,7.63
2019-04-22T16:41:37.167Z,7.20
2019-04-22T16:44:08.927Z,6.83
2019-04-22T16:46:41.541Z,4.27
2019-04-22T16:49:14.106Z,4.80
2019-04-22T16:51:45.710Z,4.23
2019-04-22T16:54:16.328Z,4.73
2019-04-22T16:56:47.994Z,7.80
2019-04-22T16:59:18.977Z,8.05
2019-04-22T17:02:08.580Z,5.90
2019-04-22T17:05:05.263Z,5.63
2019-04-22T17:07:36.180Z,4.67
2019-04-22T17:10:08.220Z,4.50
2019-04-22T17:12:48.847Z,4.73
2019-04-22T17:15:13.998Z,5.70
2019-04-22T17:17:43.245Z,4.67
2019-04-22T17:20:13.698Z,6.07
2019-04-22T17:22:44.911Z,4.53
2019-04-22T17:25:16.269Z,5.93
2019-04-22T17:27:47.483Z,5.33
2019-04-22T17:30:18.101Z,5.17
2019-04-22T17:32:48.662Z,7.30
2019-04-22T17:35:19.993Z,4.27
2019-04-22T17:38:01.818Z,5.07
2019-04-22T17:40:38.818Z,3.90
2019-04-22T17:43:29.990Z,4.23
2019-04-22T17:45:58.479Z,4.17
2019-04-22T17:48:40.743Z,5.93
2019-04-22T17:51:19.102Z,4.47
2019-04-22T17:53:51.574Z,5.20
2019-04-22T17:56:14.048Z,5.47
2019-04-22T17:58:47.708Z,12.60
2019-04-22T18:01:19.131Z,6.47
2019-04-22T18:03:37.307Z,6.17
2019-04-22T18:06:10.394Z,3.53
2019-04-22T18:09:12.418Z,4.00
2019-04-22T18:11:51.203Z,3.83
2019-04-22T18:14:34.975Z,6.13
2019-04-22T18:16:52.151Z,4.17
2019-04-22T18:19:19.621Z,5.27
2019-04-22T18:21:47.655Z,4.20
2019-04-22T18:24:15.775Z,4.10
2019-04-22T18:27:03.270Z,4.27
2019-04-22T18:29:33.022Z,4.13
2019-04-22T18:31:55.625Z,11.70
2019-04-22T18:34:33.699Z,5.67
2019-04-22T18:37:04.008Z,8.80
2019-04-22T18:39:42.527Z,5.03
2019-04-22T18:42:13.156Z,5.63
2019-04-22T18:44:50.786Z,6.67
2019-04-22T18:47:14.780Z,4.80
2019-04-22T18:49:46.279Z,4.43
2019-04-22T18:52:43.605Z,5.77
2019-04-22T18:55:33.901Z,5.87
2019-04-22T18:58:04.125Z,4.97
2019-04-22T19:00:29.357Z,4.23
2019-04-22T19:03:07.449Z,5.03
2019-04-22T19:05:54.370Z,5.13
2019-04-22T19:08:36.639Z,3.90
2019-04-22T19:11:03.592Z,4.10
2019-04-22T19:16:17.518Z,6.77
2019-04-22T19:21:08.060Z,5.97
2019-04-22T19:23:38.979Z,4.10
2019-04-22T19:26:15.180Z,6.07
2019-04-22T19:28:40.451Z,4.93
2019-04-22T19:33:52.397Z,4.20
2019-04-22T19:36:36.059Z,5.27
2019-04-22T19:38:46.330Z,4.83
2019-04-22T19:41:24.015Z,5.73
2019-04-22T19:44:00.556Z,4.30
2019-04-22T19:46:25.112Z,6.80
2019-04-22T19:49:06.960Z,8.47
2019-04-22T19:51:44.097Z,8.90
2019-04-22T19:54:01.682Z,6.03
2019-04-22T19:56:26.490Z,4.93
2019-04-22T19:59:05.220Z,5.27
2019-04-22T20:01:54.076Z,4.70
2019-04-22T20:04:46.267Z,5.27
2019-04-22T20:07:14.100Z,5.13
2019-04-22T20:09:49.328Z,6.10
2019-04-22T20:12:18.457Z,5.87
2019-04-22T20:14:49.534Z,6.33
2019-04-22T20:17:30.053Z,5.33
2019-04-22T20:19:56.063Z,4.57
2019-04-22T20:22:23.600Z,4.83
2019-04-22T20:24:47.622Z,4.47
2019-04-22T20:27:30.344Z,4.73
2019-04-22T20:30:04.736Z,7.37
2019-04-22T20:32:32.591Z,5.87
2019-04-22T20:35:09.271Z,5.60
2019-04-22T20:37:38.552Z,6.13
2019-04-22T20:40:10.719Z,7.43
2019-04-22T20:42:51.510Z,8.20
2019-04-22T20:45:19.567Z,4.97
2019-04-22T20:47:40.458Z,5.83
2019-04-22T20:50:21.685Z,7.87
2019-04-22T20:52:59.574Z,7.33
2019-04-22T20:55:16.423Z,5.77
2019-04-22T20:57:53.079Z,5.10
2019-04-22T21:00:23.861Z,4.93
2019-04-22T21:02:48.869Z,5.93
2019-04-22T21:05:24.834Z,4.77
2019-04-22T21:08:06.330Z,4.27
2019-04-22T21:10:28.733Z,8.30
2019-04-22T21:13:00.151Z,5.30
2019-04-22T21:15:44.413Z,4.93
2019-04-22T21:18:08.379Z,5.07
2019-04-22T21:20:51.700Z,5.67
2019-04-22T21:23:17.906Z,4.33
2019-04-22T21:25:38.573Z,6.00
2019-04-22T21:28:21.890Z,6.10
2019-04-22T21:30:52.408Z,5.43
2019-04-22T21:33:18.620Z,4.67
2019-04-22T21:38:34.466Z,6.27
2019-04-22T21:40:59.910Z,6.73
2019-04-22T21:43:36.919Z,5.37
2019-04-22T21:46:08.729Z,4.83
2019-04-22T21:48:57.923Z,5.10
2019-04-22T21:51:12.335Z,8.13
2019-04-22T21:53:50.496Z,4.50
2019-04-22T21:56:31.865Z,5.00
2019-04-22T21:59:07.837Z,5.73
2019-04-22T22:01:54.805Z,6.23
2019-04-22T22:04:19.014Z,6.13
2019-04-22T22:06:41.359Z,5.20
2019-04-22T22:09:25.270Z,5.80
2019-04-22T22:11:51.091Z,5.03
2019-04-22T22:14:23.166Z,5.20
2019-04-22T22:16:50.650Z,6.50
2019-04-22T22:19:28.392Z,4.70
2019-04-22T22:22:06.057Z,4.53
2019-04-22T22:24:41.632Z,6.93
2019-04-22T22:27:11.034Z,7.10
2019-04-22T22:29:55.640Z,5.57
2019-04-22T22:32:13.312Z,5.53
2019-04-22T22:34:43.494Z,6.93
2019-04-22T22:37:06.467Z,7.17
2019-04-22T22:39:36.686Z,8.43
2019-04-22T22:41:57.634Z,4.87
2019-04-22T22:44:54.480Z,5.00
2019-04-22T22:47:39.260Z,5.97
2019-04-22T22:50:09.044Z,5.80
2019-04-22T22:53:19.125Z,5.20
2019-04-22T22:55:16.400Z,5.73
2019-04-22T22:57:50.234Z,5.67
2019-04-22T23:00:15.899Z,5.00
2019-04-22T23:03:11.175Z,5.80
2019-04-22T23:05:29.019Z,4.60
2019-04-22T23:07:59.001Z,6.30
2019-04-22T23:10:31.700Z,5.73
2019-04-22T23:13:06.771Z,5.43
2019-04-22T23:15:29.169Z,5.50
2019-04-22T23:17:45.695Z,7.87
2019-04-22T23:20:18.505Z,5.17
2019-04-22T23:23:14.405Z,5.13
2019-04-22T23:25:49.944Z,6.10
2019-04-22T23:28:30.745Z,8.80
2019-04-22T23:31:09.454Z,6.13
2019-04-22T23:33:54.749Z,6.40
2019-04-22T23:36:36.944Z,5.80
2019-04-22T23:39:17.102Z,6.70
2019-04-22T23:41:51.380Z,7.77
2019-04-22T23:44:39.851Z,5.93
2019-04-22T23:46:56.792Z,7.17
2019-04-22T23:49:30.010Z,7.37
2019-04-22T23:52:16.148Z,6.73
2019-04-22T23:54:49.152Z,9.83
2019-04-22T23:57:16.702Z,5.10
2019-04-22T23:59:49.527Z,6.10
